Sparks, Nebraska
Current Conditions -  °F | °C
As of 8:52 AM on Thursday 30 Oct 2014 (Local Time) from KVTN Reporting Station
Clear Clear  
Wind Chill: 34°   Ceiling: Unl
Heat Index: 39°   Visibility: 10mi
Dew Point: 32°   Wind: 7mph
Humidity: 76%   Direction: 300°WNW
Pressure: 30.21"   Gusts: NA
Location:  42.94°N, 100.26°W
Report Text: KVTN 301352Z AUTO 30006KT 10SM CLR 04/00 A3021 RMK AO2 SLP237 T00390000
Loading
Personal Weather Stations






























Interactive Weather Map
Tropical Storm Tracking
New forecast layout! Learn more

10-Day Weather Forecast

Advertisements
Track Severe Weather on mobile